<?xml version='1.0' encoding='UTF-8'?>
<gpx xmlns="http://www.topografix.com/GPX/1/1" creator="www.balnam.be" version="1.1" xmlns:xsi="http://www.w3.org/2001/XMLSchema-instance" xsi:schemaLocation="http://www.topografix.com/GPX/1/1 http://www.topografix.com/GPX/1/1/gpx.xsd">
<trk>
<name>xlblb19</name>
<cmt>v</cmt>
<desc>Libin Chemin n°19 Rue de Poix</desc>
<link href="https://chemins.be/libin/chemin/19"/><trkseg>
<trkpt lat="49.992850" lon="5.247817"><time>2026-05-02T18:07:21Z</time></trkpt>
<trkpt lat="49.995630" lon="5.253192"><time>2026-05-02T18:17:21Z</time></trkpt>
<trkpt lat="49.995775" lon="5.254834"><time>2026-05-02T18:27:21Z</time></trkpt>
<trkpt lat="49.996092" lon="5.256470"><time>2026-05-02T18:37:21Z</time></trkpt>
<trkpt lat="49.996140" lon="5.260209"><time>2026-05-02T18:47:21Z</time></trkpt>
<trkpt lat="49.996472" lon="5.265294"><time>2026-05-02T18:57:21Z</time></trkpt>
<trkpt lat="49.996196" lon="5.267740"><time>2026-05-02T19:07:21Z</time></trkpt>
</trkseg></trk>
<trk>
<name>xlblb19</name>
<cmt>q</cmt>
<desc>Libin Chemin n°19 Rue de Poix</desc>
<link href="https://chemins.be/libin/chemin/19"/><trkseg>
<trkpt lat="49.996196" lon="5.267740"><time>2026-05-02T19:07:21Z</time></trkpt>
<trkpt lat="49.996085" lon="5.268127"><time>2026-05-02T19:17:21Z</time></trkpt>
<trkpt lat="49.996982" lon="5.270122"><time>2026-05-02T19:27:21Z</time></trkpt>
<trkpt lat="49.997820" lon="5.276125"><time>2026-05-02T19:37:21Z</time></trkpt>
</trkseg></trk>
<trk>
<name>xlblb19</name>
<cmt>v</cmt>
<desc>Libin Chemin n°19 Rue de Poix</desc>
<link href="https://chemins.be/libin/chemin/19"/><trkseg>
<trkpt lat="49.997820" lon="5.276125"><time>2026-05-02T19:37:21Z</time></trkpt>
<trkpt lat="49.999248" lon="5.280844"><time>2026-05-02T19:47:21Z</time></trkpt>
</trkseg></trk>
<trk>
<name>xlblb19</name>
<cmt>q</cmt>
<desc>Libin Chemin n°19 Rue de Poix</desc>
<link href="https://chemins.be/libin/chemin/19"/><trkseg>
<trkpt lat="49.999248" lon="5.280844"><time>2026-05-02T19:47:21Z</time></trkpt>
<trkpt lat="49.999354" lon="5.281731"><time>2026-05-02T19:57:21Z</time></trkpt>
<trkpt lat="49.999065" lon="5.284220"><time>2026-05-02T20:07:21Z</time></trkpt>
<trkpt lat="49.999313" lon="5.285679"><time>2026-05-02T20:17:21Z</time></trkpt>
<trkpt lat="50.002586" lon="5.289556"><time>2026-05-02T20:27:21Z</time></trkpt>
<trkpt lat="50.003845" lon="5.292102"><time>2026-05-02T20:37:21Z</time></trkpt>
<trkpt lat="50.005252" lon="5.293475"><time>2026-05-02T20:47:21Z</time></trkpt>
<trkpt lat="50.005731" lon="5.294421"><time>2026-05-02T20:57:21Z</time></trkpt>
</trkseg></trk>
<trk>
<name>xlblb19</name>
<cmt>v</cmt>
<desc>Libin Chemin n°19 Rue de Poix</desc>
<link href="https://chemins.be/libin/chemin/19"/><trkseg>
<trkpt lat="50.005731" lon="5.294421"><time>2026-05-02T20:57:21Z</time></trkpt>
<trkpt lat="50.005757" lon="5.294678"><time>2026-05-02T21:07:21Z</time></trkpt>
<trkpt lat="50.006514" lon="5.296753"><time>2026-05-02T21:17:21Z</time></trkpt>
<trkpt lat="50.007061" lon="5.300251"><time>2026-05-02T21:27:21Z</time></trkpt>
</trkseg></trk>
<trk>
<name>xlblb19</name>
<cmt>q</cmt>
<desc>Libin Chemin n°19 Rue de Poix</desc>
<link href="https://chemins.be/libin/chemin/19"/><trkseg>
<trkpt lat="50.007061" lon="5.300251"><time>2026-05-02T21:27:21Z</time></trkpt>
<trkpt lat="50.007341" lon="5.302096"><time>2026-05-02T21:37:21Z</time></trkpt>
<trkpt lat="50.007544" lon="5.303076"><time>2026-05-02T21:47:21Z</time></trkpt>
<trkpt lat="50.006997" lon="5.303584"><time>2026-05-02T21:57:21Z</time></trkpt>
<trkpt lat="50.006845" lon="5.304928"><time>2026-05-02T22:07:21Z</time></trkpt>
</trkseg>
</trk>
</gpx>